createdAt,value
2023-01-29T00:02:23.569Z,64.85
2023-01-29T00:04:51.577Z,65.57
2023-01-29T00:07:18.845Z,60.67
2023-01-29T00:09:46.349Z,54.81
2023-01-29T00:12:13.877Z,53.80
2023-01-29T00:14:41.087Z,54.72
2023-01-29T00:17:10.639Z,56.58
2023-01-29T00:19:38.546Z,60.76
2023-01-29T00:22:05.907Z,61.22
2023-01-29T00:24:33.307Z,63.48
2023-01-29T00:27:00.697Z,66.26
2023-01-29T00:29:28.156Z,63.28
2023-01-29T00:31:55.889Z,57.27
2023-01-29T00:34:24.212Z,54.62
2023-01-29T00:36:51.578Z,55.88
2023-01-29T00:39:29.351Z,57.84
2023-01-29T00:42:21.834Z,61.55
2023-01-29T00:44:58.641Z,65.69
2023-01-29T00:47:33.977Z,65.14
2023-01-29T00:50:03.004Z,60.21
2023-01-29T00:52:30.652Z,54.16
2023-01-29T00:55:00.497Z,52.87
2023-01-29T00:57:30.292Z,53.97
2023-01-29T00:59:58.126Z,58.47
2023-01-29T01:02:44.236Z,58.07
2023-01-29T01:05:20.171Z,61.95
2023-01-29T01:07:50.023Z,65.31
2023-01-29T01:10:24.676Z,63.81
2023-01-29T01:12:55.058Z,58.97
2023-01-29T01:15:24.757Z,53.47
2023-01-29T01:18:00.065Z,55.03
2023-01-29T01:20:29.681Z,56.14
2023-01-29T01:22:57.497Z,57.58
2023-01-29T01:25:26.790Z,57.19
2023-01-29T01:27:54.982Z,58.13
2023-01-29T01:30:23.479Z,58.93
2023-01-29T01:32:50.901Z,63.01
2023-01-29T01:35:18.283Z,65.85
2023-01-29T01:37:45.564Z,63.22
2023-01-29T01:40:20.695Z,56.90
2023-01-29T01:42:56.900Z,52.92
2023-01-29T01:45:27.136Z,54.86
2023-01-29T01:48:04.297Z,57.40
2023-01-29T01:50:47.324Z,60.05
2023-01-29T01:53:19.292Z,63.25
2023-01-29T01:55:51.127Z,64.55
2023-01-29T01:58:37.432Z,61.26
2023-01-29T02:04:19.712Z,52.00
2023-01-29T02:07:06.798Z,54.29
2023-01-29T02:09:41.083Z,55.05
2023-01-29T02:12:13.674Z,56.46
2023-01-29T02:14:43.007Z,58.23
2023-01-29T02:17:16.379Z,59.36
2023-01-29T02:20:08.184Z,60.46
2023-01-29T02:23:18.570Z,59.66
2023-01-29T02:26:17.195Z,66.17
2023-01-29T02:28:53.928Z,67.51
2023-01-29T02:31:32.818Z,60.59
2023-01-29T02:34:19.141Z,53.16
2023-01-29T02:36:52.713Z,51.48
2023-01-29T02:39:44.947Z,54.93
2023-01-29T02:42:31.534Z,54.82
2023-01-29T02:45:04.235Z,57.89
2023-01-29T02:47:40.614Z,60.17
2023-01-29T02:50:37.989Z,59.67
2023-01-29T02:53:14.312Z,65.16
2023-01-29T02:55:56.189Z,63.12
2023-01-29T02:58:42.568Z,60.89
2023-01-29T03:01:38.316Z,53.30
2023-01-29T03:04:13.627Z,51.46
2023-01-29T03:06:49.737Z,54.67
2023-01-29T03:09:23.287Z,56.44
2023-01-29T03:12:28.797Z,58.84
2023-01-29T03:15:14.581Z,61.32
2023-01-29T03:17:54.971Z,66.34
2023-01-29T03:20:29.969Z,64.09
2023-01-29T03:23:04.656Z,58.26
2023-01-29T03:25:53.974Z,52.88
2023-01-29T03:28:41.789Z,53.91
2023-01-29T03:31:33.152Z,53.97
2023-01-29T03:34:25.075Z,55.69
2023-01-29T03:37:04.487Z,58.64
2023-01-29T03:39:32.149Z,60.48
2023-01-29T03:42:02.084Z,61.54
2023-01-29T03:44:52.478Z,63.59
2023-01-29T03:47:38.159Z,65.88
2023-01-29T03:50:20.651Z,63.32
2023-01-29T03:53:04.159Z,55.44
2023-01-29T03:55:42.526Z,51.89
2023-01-29T03:58:36.402Z,54.98
2023-01-29T04:01:12.083Z,57.73
2023-01-29T04:03:48.064Z,59.75
2023-01-29T04:06:21.208Z,62.79
2023-01-29T04:08:58.088Z,64.60
2023-01-29T04:11:27.998Z,58.95
2023-01-29T04:13:56.759Z,54.20
2023-01-29T04:16:29.944Z,53.77
2023-01-29T04:18:58.228Z,55.36
2023-01-29T04:21:26.631Z,58.82
2023-01-29T04:23:54.623Z,61.75
2023-01-29T04:26:37.704Z,65.20
2023-01-29T04:29:40.493Z,65.09
2023-01-29T04:32:39.203Z,59.97
2023-01-29T04:35:12.623Z,53.44
2023-01-29T04:38:06.187Z,53.82
2023-01-29T04:40:56.144Z,57.18
2023-01-29T04:43:28.904Z,58.97
2023-01-29T04:46:16.034Z,60.33
2023-01-29T04:49:01.844Z,63.98
2023-01-29T04:51:59.246Z,65.55
2023-01-29T04:54:58.895Z,61.98
2023-01-29T04:58:04.294Z,53.96
2023-01-29T05:00:38.707Z,53.83
2023-01-29T05:03:10.161Z,54.63
2023-01-29T05:05:39.786Z,55.85
2023-01-29T05:08:08.492Z,57.21
2023-01-29T05:10:36.256Z,58.55
2023-01-29T05:13:05.975Z,60.37
2023-01-29T05:15:50.947Z,60.85
2023-01-29T05:18:18.353Z,60.90
2023-01-29T05:20:47.398Z,66.13
2023-01-29T05:23:22.878Z,68.59
2023-01-29T05:25:52.367Z,64.90
2023-01-29T05:28:19.953Z,60.70
2023-01-29T05:30:49.659Z,54.57
2023-01-29T05:33:25.200Z,52.78
2023-01-29T05:35:52.974Z,53.94
2023-01-29T05:38:20.995Z,56.16
2023-01-29T05:40:48.589Z,58.54
2023-01-29T05:43:22.032Z,61.39
2023-01-29T05:46:07.984Z,60.90
2023-01-29T05:48:35.522Z,60.66
2023-01-29T05:51:04.992Z,65.73
2023-01-29T05:53:33.818Z,69.15
2023-01-29T05:56:25.881Z,65.85
2023-01-29T05:58:53.198Z,60.04
2023-01-29T06:01:26.325Z,53.39
2023-01-29T06:03:53.780Z,52.66
2023-01-29T06:06:21.400Z,53.88
2023-01-29T06:08:48.819Z,55.01
2023-01-29T06:11:18.827Z,56.15
2023-01-29T06:13:46.307Z,57.07
2023-01-29T06:16:14.574Z,57.91
2023-01-29T06:18:42.551Z,58.68
2023-01-29T06:21:12.896Z,59.21
2023-01-29T06:23:40.654Z,59.84
2023-01-29T06:26:11.210Z,60.52
2023-01-29T06:28:40.096Z,61.06
2023-01-29T06:31:24.988Z,61.61
2023-01-29T06:33:56.330Z,67.49
2023-01-29T06:36:23.737Z,68.51
2023-01-29T06:38:50.994Z,63.55
2023-01-29T06:41:20.279Z,57.83
2023-01-29T06:43:48.320Z,54.80
2023-01-29T06:46:15.421Z,54.28
2023-01-29T06:48:43.314Z,55.37
2023-01-29T06:51:11.957Z,56.26
2023-01-29T06:53:40.452Z,57.87
2023-01-29T06:56:08.324Z,58.17
2023-01-29T06:58:39.162Z,59.42
2023-01-29T07:01:09.740Z,60.69
2023-01-29T07:03:37.591Z,65.67
2023-01-29T07:06:05.943Z,68.56
2023-01-29T07:08:37.484Z,62.93
2023-01-29T07:11:05.664Z,56.79
2023-01-29T07:13:33.530Z,53.06
2023-01-29T07:16:02.651Z,53.55
2023-01-29T07:18:31.397Z,55.42
2023-01-29T07:20:58.942Z,58.37
2023-01-29T07:23:26.706Z,58.86
2023-01-29T07:25:54.113Z,59.59
2023-01-29T07:28:21.331Z,60.58
2023-01-29T07:30:48.575Z,64.51
2023-01-29T07:33:15.712Z,64.43
2023-01-29T07:35:44.209Z,60.88
2023-01-29T07:38:12.204Z,56.37
2023-01-29T07:40:39.712Z,56.80
2023-01-29T07:43:08.131Z,57.29
2023-01-29T07:45:37.319Z,57.86
2023-01-29T07:48:06.000Z,58.74
2023-01-29T07:50:35.089Z,61.16
2023-01-29T07:53:03.031Z,65.65
2023-01-29T07:55:32.189Z,67.25
2023-01-29T07:58:01.938Z,62.79
2023-01-29T08:00:31.702Z,57.41
2023-01-29T08:03:07.779Z,54.92
2023-01-29T08:05:35.387Z,56.42
2023-01-29T08:08:07.038Z,58.29
2023-01-29T08:10:36.140Z,60.94
2023-01-29T08:13:04.924Z,61.91
2023-01-29T08:15:33.010Z,66.33
2023-01-29T08:18:02.410Z,62.94
2023-01-29T08:20:29.721Z,60.19
2023-01-29T08:23:06.361Z,55.82
2023-01-29T08:25:35.324Z,55.46
2023-01-29T08:28:02.837Z,57.30
2023-01-29T08:30:33.492Z,58.88
2023-01-29T08:33:00.979Z,60.89
2023-01-29T08:35:28.492Z,63.73
2023-01-29T08:38:00.101Z,64.97
2023-01-29T08:40:29.582Z,61.50
2023-01-29T08:43:07.023Z,56.13
2023-01-29T08:45:37.900Z,55.14
2023-01-29T08:48:05.642Z,57.09
2023-01-29T08:50:35.254Z,59.09
2023-01-29T08:53:05.215Z,62.04
2023-01-29T08:55:32.410Z,64.15
2023-01-29T08:57:59.778Z,62.87
2023-01-29T09:00:27.109Z,57.09
2023-01-29T09:02:54.443Z,54.19
2023-01-29T09:05:21.900Z,56.64
2023-01-29T09:07:49.267Z,58.10
2023-01-29T09:10:19.188Z,59.57
2023-01-29T09:12:47.434Z,59.54
2023-01-29T09:15:15.199Z,64.22
2023-01-29T09:17:43.816Z,64.05
2023-01-29T09:20:11.674Z,59.73
2023-01-29T09:22:39.052Z,54.40
2023-01-29T09:25:07.337Z,53.34
2023-01-29T09:27:34.715Z,54.17
2023-01-29T09:30:01.976Z,57.89
2023-01-29T09:35:18.571Z,63.18
2023-01-29T09:37:50.297Z,62.77
2023-01-29T09:40:52.083Z,59.37
2023-01-29T09:43:28.002Z,54.58
2023-01-29T09:46:03.567Z,56.45
2023-01-29T09:48:34.795Z,58.65
2023-01-29T09:51:11.161Z,58.85
2023-01-29T09:53:49.970Z,61.48
2023-01-29T09:56:21.967Z,62.74
2023-01-29T09:58:50.008Z,62.00
2023-01-29T10:01:39.434Z,56.63
2023-01-29T10:04:36.853Z,55.85
2023-01-29T10:07:10.283Z,58.38
2023-01-29T10:10:07.995Z,59.28
2023-01-29T10:13:00.027Z,60.81
2023-01-29T10:15:47.142Z,64.18
2023-01-29T10:18:53.822Z,63.07
2023-01-29T10:21:42.784Z,57.98
2023-01-29T10:24:30.876Z,55.22
2023-01-29T10:27:00.499Z,57.44
2023-01-29T10:29:29.476Z,57.38
2023-01-29T10:32:05.533Z,58.67
2023-01-29T10:34:39.010Z,62.89
2023-01-29T10:37:24.823Z,62.53
2023-01-29T10:39:52.203Z,56.62
2023-01-29T10:42:34.976Z,55.75
2023-01-29T10:45:16.059Z,57.68
2023-01-29T10:48:06.809Z,58.95
2023-01-29T10:50:58.172Z,61.27
2023-01-29T10:53:49.614Z,62.72
2023-01-29T10:56:33.813Z,60.65
2023-01-29T10:59:09.302Z,54.85
2023-01-29T11:01:36.671Z,53.07
2023-01-29T11:04:07.190Z,52.66
2023-01-29T11:06:36.668Z,56.08
2023-01-29T11:09:29.168Z,57.54
2023-01-29T11:12:20.198Z,59.68
2023-01-29T11:14:56.416Z,60.69
2023-01-29T11:17:25.702Z,61.29
2023-01-29T11:19:58.101Z,62.23
2023-01-29T11:22:28.409Z,63.18
2023-01-29T11:25:20.573Z,59.97
2023-01-29T11:27:51.536Z,52.69
2023-01-29T11:30:27.831Z,52.93
2023-01-29T11:33:10.356Z,53.23
2023-01-29T11:35:37.866Z,55.51
2023-01-29T11:38:17.569Z,57.97
2023-01-29T11:40:45.988Z,58.68
2023-01-29T11:43:31.686Z,61.00
2023-01-29T11:46:12.688Z,61.29
2023-01-29T11:48:48.553Z,61.84
2023-01-29T11:51:27.748Z,61.62
2023-01-29T11:54:02.749Z,61.43
2023-01-29T11:56:43.568Z,63.96
2023-01-29T11:59:43.345Z,64.76
2023-01-29T12:02:42.650Z,54.01
2023-01-29T12:05:27.958Z,53.51
2023-01-29T12:08:00.655Z,55.99
2023-01-29T12:10:41.374Z,57.16
2023-01-29T12:13:12.408Z,57.97
2023-01-29T12:15:41.405Z,60.08
2023-01-29T12:18:36.248Z,60.86
2023-01-29T12:21:06.045Z,60.82
2023-01-29T12:23:50.550Z,61.90
2023-01-29T12:26:33.301Z,61.69
2023-01-29T12:29:16.328Z,62.64
2023-01-29T12:31:55.884Z,64.32
2023-01-29T12:34:49.741Z,59.69
2023-01-29T12:37:29.327Z,53.33
2023-01-29T12:39:56.801Z,52.66
2023-01-29T12:42:26.071Z,54.93
2023-01-29T12:44:59.209Z,56.58
2023-01-29T12:47:40.725Z,57.93
2023-01-29T12:50:37.222Z,58.35
2023-01-29T12:53:32.751Z,59.89
2023-01-29T12:56:08.242Z,60.92
2023-01-29T12:58:55.355Z,60.40
2023-01-29T13:01:46.425Z,61.63
2023-01-29T13:04:26.469Z,61.42
2023-01-29T13:07:00.489Z,62.81
2023-01-29T13:09:31.130Z,63.24
2023-01-29T13:12:10.723Z,56.44
2023-01-29T13:14:56.263Z,56.19
2023-01-29T13:17:38.934Z,57.03
2023-01-29T13:20:20.432Z,59.18
2023-01-29T13:22:49.698Z,58.72
2023-01-29T13:26:16.892Z,59.88
2023-01-29T13:28:50.532Z,61.58
2023-01-29T13:31:19.815Z,62.00
2023-01-29T13:34:35.901Z,63.57
2023-01-29T13:37:31.164Z,64.74
2023-01-29T13:40:45.804Z,57.08
2023-01-29T13:43:39.719Z,56.03
2023-01-29T13:46:32.674Z,57.14
2023-01-29T13:49:05.402Z,58.59
2023-01-29T13:52:07.339Z,60.08
2023-01-29T13:55:14.525Z,60.62
2023-01-29T13:58:05.091Z,60.48
2023-01-29T14:00:50.553Z,61.25
2023-01-29T14:03:18.768Z,61.84
2023-01-29T14:05:57.819Z,63.28
2023-01-29T14:08:44.012Z,66.19
2023-01-29T14:11:21.777Z,61.78
2023-01-29T14:13:52.873Z,53.26
2023-01-29T14:16:21.170Z,51.37
2023-01-29T14:19:18.109Z,52.08
2023-01-29T14:21:54.589Z,54.36
2023-01-29T14:24:52.986Z,56.42
2023-01-29T14:27:46.446Z,55.96
2023-01-29T14:30:18.987Z,58.64
2023-01-29T14:33:35.503Z,58.95
2023-01-29T14:36:40.882Z,61.13
2023-01-29T14:39:55.815Z,60.75
2023-01-29T14:43:31.954Z,62.35
2023-01-29T14:46:35.678Z,64.93
2023-01-29T14:49:45.780Z,59.42
2023-01-29T14:53:14.456Z,52.48
2023-01-29T14:57:03.814Z,54.19
2023-01-29T14:59:40.096Z,56.34
2023-01-29T15:02:33.413Z,56.81
2023-01-29T15:05:02.856Z,57.05
2023-01-29T15:07:39.501Z,59.66
2023-01-29T15:11:22.651Z,59.52
2023-01-29T15:14:21.678Z,62.57
2023-01-29T15:17:38.301Z,61.49
2023-01-29T15:21:30.138Z,56.25
2023-01-29T15:25:06.248Z,55.95
2023-01-29T15:28:36.273Z,56.60
2023-01-29T15:31:30.689Z,59.08
2023-01-29T15:34:22.200Z,60.31
2023-01-29T15:37:34.323Z,60.89
2023-01-29T15:40:41.798Z,62.48
2023-01-29T15:43:46.564Z,65.13
2023-01-29T15:46:39.099Z,62.34
2023-01-29T15:50:06.560Z,55.58
2023-01-29T15:52:57.312Z,52.76
2023-01-29T15:55:35.937Z,53.21
2023-01-29T15:58:03.846Z,54.32
2023-01-29T16:00:34.227Z,56.01
2023-01-29T16:03:15.138Z,58.02
2023-01-29T16:06:03.108Z,58.39
2023-01-29T16:08:32.433Z,60.86
2023-01-29T16:11:24.178Z,62.24
2023-01-29T16:14:00.257Z,66.12
2023-01-29T16:17:11.946Z,63.50
2023-01-29T16:20:06.689Z,55.66
2023-01-29T16:22:58.413Z,52.87
2023-01-29T16:26:06.759Z,55.13
2023-01-29T16:29:36.249Z,54.72
2023-01-29T16:32:29.982Z,59.71
2023-01-29T16:35:21.380Z,59.51
2023-01-29T16:37:52.050Z,61.20
2023-01-29T16:40:36.662Z,64.20
2023-01-29T16:43:53.049Z,61.96
2023-01-29T16:46:56.592Z,57.46
2023-01-29T16:49:34.908Z,53.45
2023-01-29T16:52:44.524Z,55.89
2023-01-29T16:55:33.086Z,57.37
2023-01-29T16:58:47.540Z,57.24
2023-01-29T17:01:55.525Z,58.49
2023-01-29T17:05:26.761Z,58.66
2023-01-29T17:09:18.393Z,63.20
2023-01-29T17:12:47.738Z,60.00
2023-01-29T17:16:48.021Z,55.42
2023-01-29T17:20:40.058Z,58.08
2023-01-29T17:24:28.396Z,62.07
2023-01-29T17:28:26.222Z,65.30
2023-01-29T17:32:19.509Z,59.44
2023-01-29T17:36:10.557Z,52.52
2023-01-29T17:39:58.978Z,56.47
2023-01-29T17:43:42.449Z,57.22
2023-01-29T17:46:21.323Z,59.42
2023-01-29T17:48:53.396Z,61.61
2023-01-29T17:51:23.449Z,64.29
2023-01-29T17:53:53.040Z,64.43
2023-01-29T17:56:33.689Z,60.64
2023-01-29T17:59:03.063Z,56.18
2023-01-29T18:01:31.437Z,54.24
2023-01-29T18:04:00.438Z,54.56
2023-01-29T18:06:32.703Z,56.76
2023-01-29T18:09:00.625Z,58.18
2023-01-29T18:11:30.183Z,59.96
2023-01-29T18:13:58.493Z,61.92
2023-01-29T18:16:29.687Z,64.29
2023-01-29T18:18:58.148Z,64.32
2023-01-29T18:21:26.892Z,61.09
2023-01-29T18:23:55.352Z,56.08
2023-01-29T18:26:23.815Z,54.52
2023-01-29T18:28:53.605Z,54.58
2023-01-29T18:31:22.360Z,55.50
2023-01-29T18:33:50.710Z,57.57
2023-01-29T18:36:23.666Z,58.08
2023-01-29T18:38:55.519Z,60.42
2023-01-29T18:41:24.627Z,61.31
2023-01-29T18:43:54.203Z,65.02
2023-01-29T18:46:24.947Z,67.51
2023-01-29T18:48:53.914Z,61.33
2023-01-29T18:51:22.041Z,58.95
2023-01-29T18:53:53.735Z,53.86
2023-01-29T18:56:22.281Z,54.04
2023-01-29T19:02:50.331Z,56.11
2023-01-29T19:05:24.021Z,57.89
2023-01-29T19:07:53.674Z,61.34
2023-01-29T19:10:22.604Z,65.28
2023-01-29T19:12:51.392Z,62.24
2023-01-29T19:15:22.433Z,60.55
2023-01-29T19:17:53.894Z,56.06
2023-01-29T19:20:24.701Z,54.49
2023-01-29T19:22:53.377Z,56.21
2023-01-29T19:25:24.823Z,57.56
2023-01-29T19:27:56.095Z,58.73
2023-01-29T19:30:24.592Z,59.80
2023-01-29T19:32:53.685Z,60.79
2023-01-29T19:35:23.230Z,64.93
2023-01-29T19:37:51.029Z,68.75
2023-01-29T19:40:20.283Z,60.32
2023-01-29T19:42:50.139Z,55.76
2023-01-29T19:45:18.695Z,55.80
2023-01-29T19:48:06.058Z,57.32
2023-01-29T19:50:34.883Z,59.06
2023-01-29T19:53:03.149Z,61.47
2023-01-29T19:55:35.418Z,65.12
2023-01-29T19:58:05.722Z,67.74
2023-01-29T20:00:49.520Z,63.74
2023-01-29T20:03:17.549Z,57.80
2023-01-29T20:05:49.049Z,53.73
2023-01-29T20:08:19.591Z,53.90
2023-01-29T20:10:48.897Z,55.29
2023-01-29T20:13:17.786Z,56.96
2023-01-29T20:15:52.140Z,60.21
2023-01-29T20:18:25.201Z,60.37
2023-01-29T20:20:56.763Z,62.06
2023-01-29T20:23:37.301Z,65.39
2023-01-29T20:26:08.467Z,67.52
2023-01-29T20:28:38.695Z,64.06
2023-01-29T20:31:09.555Z,60.03
2023-01-29T20:33:39.627Z,54.21
2023-01-29T20:36:10.929Z,53.06
2023-01-29T20:38:40.967Z,58.14
2023-01-29T20:41:19.815Z,58.31
2023-01-29T20:43:50.853Z,59.96
2023-01-29T20:46:19.845Z,61.74
2023-01-29T20:48:49.970Z,64.53
2023-01-29T20:51:18.775Z,64.48
2023-01-29T20:53:49.253Z,63.79
2023-01-29T20:56:24.570Z,58.42
2023-01-29T20:59:04.407Z,53.48
2023-01-29T21:01:32.415Z,56.75
2023-01-29T21:04:00.656Z,59.26
2023-01-29T21:06:30.816Z,59.37
2023-01-29T21:08:59.106Z,60.22
2023-01-29T21:11:27.315Z,64.49
2023-01-29T21:14:00.430Z,65.67
2023-01-29T21:16:28.608Z,63.86
2023-01-29T21:18:58.657Z,59.44
2023-01-29T21:21:27.232Z,53.61
2023-01-29T21:23:56.802Z,53.35
2023-01-29T21:26:26.020Z,55.63
2023-01-29T21:28:53.929Z,56.69
2023-01-29T21:31:22.463Z,57.75
2023-01-29T21:33:51.387Z,58.84
2023-01-29T21:36:19.133Z,64.00
2023-01-29T21:38:46.706Z,62.72
2023-01-29T21:41:14.700Z,61.98
2023-01-29T21:43:46.189Z,55.66
2023-01-29T21:46:14.239Z,54.02
2023-01-29T21:48:41.968Z,54.85
2023-01-29T21:51:09.742Z,57.86
2023-01-29T21:53:37.821Z,58.44
2023-01-29T21:56:06.324Z,60.34
2023-01-29T21:58:33.913Z,64.62
2023-01-29T22:01:36.725Z,63.37
2023-01-29T22:03:48.959Z,62.99
2023-01-29T22:06:16.288Z,57.19
2023-01-29T22:08:43.737Z,53.39
2023-01-29T22:11:11.449Z,54.57
2023-01-29T22:13:39.223Z,55.70
2023-01-29T22:16:06.877Z,57.77
2023-01-29T22:18:35.228Z,58.65
2023-01-29T22:21:05.578Z,59.64
2023-01-29T22:23:32.961Z,63.73
2023-01-29T22:26:05.223Z,66.59
2023-01-29T22:28:32.763Z,65.00
2023-01-29T22:31:04.845Z,61.14
2023-01-29T22:33:33.733Z,56.94
2023-01-29T22:36:01.244Z,55.64
2023-01-29T22:38:29.453Z,55.58
2023-01-29T22:40:58.177Z,57.28
2023-01-29T22:43:29.705Z,59.77
2023-01-29T22:45:57.603Z,63.47
2023-01-29T22:48:25.077Z,64.33
2023-01-29T22:51:12.118Z,62.26
2023-01-29T22:53:41.304Z,57.87
2023-01-29T22:56:09.769Z,54.98
2023-01-29T22:58:37.528Z,55.61
2023-01-29T23:01:05.621Z,57.91
2023-01-29T23:03:33.225Z,57.86
2023-01-29T23:06:01.318Z,60.63
2023-01-29T23:08:28.545Z,65.30
2023-01-29T23:10:58.840Z,65.04
2023-01-29T23:13:26.903Z,61.31
2023-01-29T23:16:00.763Z,57.30
2023-01-29T23:18:28.106Z,54.85
2023-01-29T23:20:59.028Z,55.17
2023-01-29T23:23:29.360Z,56.54
2023-01-29T23:26:19.918Z,57.52
2023-01-29T23:28:47.855Z,60.38
2023-01-29T23:31:15.908Z,65.65
2023-01-29T23:33:44.541Z,64.61
2023-01-29T23:36:12.185Z,63.22
2023-01-29T23:38:39.665Z,59.94
2023-01-29T23:41:07.356Z,55.47
2023-01-29T23:43:35.542Z,54.25
2023-01-29T23:46:02.996Z,57.36
2023-01-29T23:48:30.387Z,58.61
2023-01-29T23:50:58.488Z,59.91
2023-01-29T23:53:26.697Z,62.70
2023-01-29T23:55:59.964Z,66.28
2023-01-29T23:58:28.922Z,64.89
